Time;durP1;ratioP1;P1;durP2;ratioP2;P2;SDS_P1;SDS_P2;PMS_P1;PMS_P2;Temp;Humidity;BMP_temperature;BMP_pressure;BME280_temperature;BME280_humidity;BME280_pressure;Samples;Min_cycle;Max_cycle;Signal;HPM_P1;HPM_P2
2021/03/16 00:01:07;;;;;;;15.33;2.47;;;4.00;99.90;;;;;;12586867;28;20920;-84
2021/03/16 00:07:09;;;;;;;17.38;2.78;;;4.00;99.90;;;;;;12592019;28;20060;-85
2021/03/16 00:13:10;;;;;;;21.50;2.72;;;4.10;99.90;;;;;;12585638;28;20048;-85
2021/03/16 00:19:11;;;;;;;19.17;2.72;;;4.10;99.90;;;;;;12583816;28;20156;-84
2021/03/16 00:25:13;;;;;;;17.70;2.45;;;4.10;99.90;;;;;;12583406;28;20569;-84
2021/03/16 00:31:14;;;;;;;19.00;2.80;;;4.10;99.90;;;;;;12598381;28;20047;-84
2021/03/16 00:37:16;;;;;;;14.35;2.58;;;4.00;99.90;;;;;;12599415;28;20052;-84
2021/03/16 00:43:18;;;;;;;22.30;3.33;;;3.90;99.90;;;;;;12580161;28;20109;-84
2021/03/16 00:49:19;;;;;;;23.20;3.08;;;3.90;99.90;;;;;;12583029;28;20468;-84
2021/03/16 00:55:20;;;;;;;17.17;2.85;;;3.80;99.90;;;;;;12571974;28;20047;-84
2021/03/16 01:01:22;;;;;;;17.92;2.83;;;3.80;99.90;;;;;;12576890;28;20051;-84
2021/03/16 01:07:23;;;;;;;17.52;3.40;;;3.70;99.90;;;;;;12581762;28;20684;-84
2021/03/16 01:13:25;;;;;;;24.85;2.90;;;3.80;99.90;;;;;;12575593;28;20087;-84
2021/03/16 01:19:27;;;;;;;17.30;2.42;;;3.70;99.90;;;;;;12581196;28;20051;-84
2021/03/16 01:25:28;;;;;;;17.02;2.58;;;3.60;99.90;;;;;;12594784;28;20098;-84
2021/03/16 01:31:30;;;;;;;22.70;3.80;;;3.60;99.90;;;;;;12608733;28;20127;-84
2021/03/16 01:37:31;;;;;;;21.25;2.50;;;3.70;99.90;;;;;;12587699;28;20063;-85
2021/03/16 01:43:33;;;;;;;21.00;3.25;;;3.60;99.90;;;;;;12587402;28;20075;-84
2021/03/16 01:49:34;;;;;;;23.40;2.67;;;3.50;99.90;;;;;;12588125;28;20135;-84
2021/03/16 01:55:36;;;;;;;18.83;2.83;;;3.40;99.90;;;;;;12588731;28;20116;-84
2021/03/16 02:01:38;;;;;;;23.95;3.60;;;3.50;99.90;;;;;;12580897;28;20047;-84
2021/03/16 02:08:18;;;;;;;18.58;2.60;;;3.30;99.90;;;;;;12593153;28;20453;-84
2021/03/16 02:14:36;;;;;;;17.58;2.97;;;3.20;99.90;;;;;;12561229;28;20127;-84
2021/03/16 02:21:13;;;;;;;19.60;4.07;;;3.20;99.90;;;;;;12573419;28;20051;-84
2021/03/16 02:27:19;;;;;;;17.02;3.30;;;3.10;99.90;;;;;;12506944;28;20052;-83
2021/03/16 02:33:25;;;;;;;17.77;2.92;;;3.10;99.90;;;;;;12583561;28;20152;-84
2021/03/16 02:39:27;;;;;;;12.75;2.40;;;3.10;99.90;;;;;;12593808;28;20105;-84
2021/03/16 02:45:32;;;;;;;20.85;3.17;;;3.10;99.90;;;;;;12594084;28;20525;-84
2021/03/16 02:51:37;;;;;;;17.35;2.80;;;3.00;99.90;;;;;;12589321;28;20532;-84
2021/03/16 02:57:39;;;;;;;21.05;3.72;;;3.00;99.90;;;;;;12598152;28;20051;-84
2021/03/16 03:03:44;;;;;;;22.13;2.83;;;2.90;99.90;;;;;;12590019;28;20631;-84
2021/03/16 03:09:45;;;;;;;;;;;3.00;99.90;;;;;;12593330;28;20541;-84
2021/03/16 03:15:46;;;;;;;16.95;2.80;;;3.10;99.90;;;;;;12590957;28;20037;-84
2021/03/16 03:21:54;;;;;;;25.27;4.13;;;3.20;99.90;;;;;;12592383;28;20139;-84
2021/03/16 03:28:04;;;;;;;17.30;2.90;;;3.20;99.90;;;;;;12593319;28;20460;-83
2021/03/16 03:34:06;;;;;;;19.73;3.08;;;3.20;99.90;;;;;;12579810;28;20052;-84
2021/03/16 03:40:10;;;;;;;23.48;2.97;;;3.20;99.90;;;;;;12587221;28;20044;-84
2021/03/16 03:46:15;;;;;;;16.35;2.88;;;3.20;99.90;;;;;;12612593;28;20477;-84
2021/03/16 03:52:19;;;;;;;18.95;2.80;;;3.40;99.90;;;;;;12591556;28;20047;-84
2021/03/16 03:58:20;;;;;;;18.80;2.72;;;3.40;99.90;;;;;;12581350;28;20044;-84
2021/03/16 04:04:23;;;;;;;18.52;3.50;;;3.50;99.90;;;;;;12592370;28;20048;-84
2021/03/16 04:10:25;;;;;;;21.10;2.92;;;3.40;99.90;;;;;;12580291;28;20335;-85
2021/03/16 04:16:27;;;;;;;17.63;3.25;;;3.60;99.90;;;;;;12585307;28;20087;-84
2021/03/16 04:22:29;;;;;;;24.67;3.60;;;3.60;99.90;;;;;;12582607;28;20040;-83
2021/03/16 04:28:30;;;;;;;18.48;3.33;;;3.70;99.90;;;;;;12588668;28;20764;-84
2021/03/16 04:34:31;;;;;;;19.38;3.10;;;3.70;99.90;;;;;;12582525;28;20048;-84
2021/03/16 04:40:33;;;;;;;17.05;3.83;;;3.80;99.90;;;;;;12589392;28;20048;-84
2021/03/16 04:46:34;;;;;;;15.52;2.47;;;3.80;99.90;;;;;;12599945;28;20500;-84
2021/03/16 04:52:36;;;;;;;23.60;3.63;;;3.70;99.90;;;;;;12584941;28;20043;-84
2021/03/16 04:58:37;;;;;;;18.40;3.00;;;3.80;99.90;;;;;;12580305;28;20470;-84
2021/03/16 05:04:39;;;;;;;18.45;2.75;;;3.80;99.90;;;;;;12592598;28;20083;-84
2021/03/16 05:10:40;;;;;;;18.52;3.05;;;3.80;99.90;;;;;;12589485;28;20044;-84
2021/03/16 05:16:41;;;;;;;24.77;3.58;;;3.90;99.90;;;;;;12593008;28;20204;-84
2021/03/16 05:22:43;;;;;;;26.90;3.15;;;4.00;99.90;;;;;;12587004;28;20094;-84
2021/03/16 05:28:44;;;;;;;23.55;2.85;;;4.00;99.90;;;;;;12587282;28;20120;-84
2021/03/16 05:34:45;;;;;;;18.08;2.35;;;4.00;99.90;;;;;;12571025;28;20127;-84
2021/03/16 05:40:47;;;;;;;9.25;1.77;;;4.10;99.90;;;;;;12579281;28;20082;-84
2021/03/16 05:46:49;;;;;;;16.00;1.98;;;4.00;99.90;;;;;;12581818;28;20130;-84
2021/03/16 05:52:54;;;;;;;15.85;2.00;;;4.10;99.90;;;;;;12584778;28;20055;-84
2021/03/16 05:58:56;;;;;;;18.45;2.22;;;4.20;99.90;;;;;;12582304;28;20109;-85
2021/03/16 06:04:59;;;;;;;13.85;2.13;;;4.20;99.90;;;;;;12548541;28;20083;-84
2021/03/16 06:11:01;;;;;;;13.75;1.60;;;4.30;99.90;;;;;;12587010;28;20092;-85
2021/03/16 06:17:03;;;;;;;12.68;2.28;;;4.30;99.90;;;;;;12586256;28;20108;-85
2021/03/16 06:23:11;;;;;;;13.15;2.08;;;4.30;99.90;;;;;;12579863;28;20051;-85
2021/03/16 06:29:12;;;;;;;13.02;2.15;;;4.40;99.90;;;;;;12592201;28;20082;-85
2021/03/16 06:35:14;;;;;;;13.45;2.72;;;4.50;99.90;;;;;;12594379;28;20096;-85
2021/03/16 06:41:20;;;;;;;15.70;2.55;;;4.50;99.90;;;;;;12581319;28;20101;-85
2021/03/16 06:47:21;;;;;;;16.92;2.03;;;4.50;99.90;;;;;;12592585;28;20321;-85
2021/03/16 06:53:27;;;;;;;15.18;1.80;;;4.60;99.90;;;;;;12590963;28;20389;-85
2021/03/16 06:59:36;;;;;;;12.65;2.50;;;4.60;99.90;;;;;;12596954;28;20086;-85
2021/03/16 07:05:37;;;;;;;15.73;2.67;;;4.60;99.90;;;;;;12582236;28;20146;-85
2021/03/16 07:11:40;;;;;;;18.10;2.80;;;4.50;99.90;;;;;;12581824;28;20040;-85
2021/03/16 07:17:43;;;;;;;14.20;2.30;;;4.60;99.90;;;;;;12587702;28;21236;-85
2021/03/16 07:23:49;;;;;;;19.05;2.60;;;4.70;99.90;;;;;;12592541;28;20048;-84
2021/03/16 07:29:51;;;;;;;16.23;2.95;;;4.80;99.90;;;;;;12590289;28;20131;-85
2021/03/16 07:35:52;;;;;;;17.50;3.00;;;5.00;99.90;;;;;;12585005;28;20040;-85
2021/03/16 07:41:54;;;;;;;12.25;2.25;;;5.20;99.90;;;;;;12581039;28;20075;-85
2021/03/16 07:47:56;;;;;;;12.88;2.38;;;5.10;99.90;;;;;;12587662;28;20052;-85
2021/03/16 07:54:01;;;;;;;12.40;2.45;;;5.00;99.90;;;;;;12581968;28;20044;-85
2021/03/16 08:00:07;;;;;;;19.30;3.50;;;5.00;99.90;;;;;;12588525;28;20079;-85
2021/03/16 08:06:27;;;;;;;13.75;2.83;;;5.10;99.90;;;;;;12608932;28;20396;-85
2021/03/16 08:12:31;;;;;;;16.60;2.70;;;5.00;99.90;;;;;;12575218;28;20464;-84
2021/03/16 08:18:34;;;;;;;11.15;2.08;;;4.80;99.90;;;;;;12580956;28;20048;-86
2021/03/16 08:24:40;;;;;;;14.02;2.20;;;4.70;99.90;;;;;;12569759;28;20071;-86
2021/03/16 08:30:42;;;;;;;8.18;1.50;;;4.80;99.90;;;;;;12579663;28;20399;-86
2021/03/16 08:36:44;;;;;;;12.10;2.00;;;4.80;99.90;;;;;;12585025;28;20066;-85
2021/03/16 08:42:46;;;;;;;17.20;2.75;;;5.00;99.90;;;;;;12581610;28;20126;-85
2021/03/16 08:48:49;;;;;;;23.95;2.60;;;5.40;99.90;;;;;;12586157;28;20300;-85
2021/03/16 08:54:54;;;;;;;12.75;2.33;;;5.70;99.90;;;;;;12583821;28;20474;-86
2021/03/16 09:00:56;;;;;;;13.88;2.60;;;5.70;99.90;;;;;;12563697;28;20047;-85
2021/03/16 09:06:57;;;;;;;8.95;2.05;;;5.90;99.90;;;;;;12566147;28;20142;-85
2021/03/16 09:13:00;;;;;;;13.90;2.13;;;5.50;99.90;;;;;;12582945;28;20044;-85
2021/03/16 09:19:01;;;;;;;11.00;2.00;;;5.40;99.90;;;;;;12575850;28;20450;-84
2021/03/16 09:25:03;;;;;;;15.20;2.85;;;5.40;99.90;;;;;;12574389;28;20104;-85
2021/03/16 09:31:05;;;;;;;12.05;2.03;;;5.70;99.90;;;;;;12575593;28;20048;-84
2021/03/16 09:37:10;;;;;;;13.18;2.25;;;6.10;99.90;;;;;;12583509;28;20083;-85
2021/03/16 09:43:39;;;;;;;6.20;1.30;;;6.00;99.90;;;;;;12578826;28;20040;-84
2021/03/16 09:49:41;;;;;;;13.93;1.73;;;6.00;99.90;;;;;;12555927;28;20080;-84
2021/03/16 09:55:43;;;;;;;5.35;1.30;;;6.00;99.90;;;;;;12596788;28;20052;-85
2021/03/16 10:01:45;;;;;;;8.50;2.25;;;6.10;99.90;;;;;;12573233;28;20068;-84
2021/03/16 10:07:51;;;;;;;8.77;1.80;;;5.90;99.90;;;;;;12578042;28;20138;-85
2021/03/16 10:13:53;;;;;;;11.98;2.30;;;5.40;99.90;;;;;;12571837;28;20071;-85
2021/03/16 10:20:07;;;;;;;9.85;2.30;;;5.60;99.90;;;;;;12567464;28;20132;-85
2021/03/16 10:26:11;;;;;;;6.93;1.95;;;5.60;99.90;;;;;;12568046;28;20666;-85
2021/03/16 10:32:12;;;;;;;4.85;1.08;;;5.50;99.90;;;;;;12566917;28;20134;-83
2021/03/16 10:38:14;;;;;;;4.53;1.77;;;5.30;99.90;;;;;;12567943;28;20057;-85
2021/03/16 10:44:15;;;;;;;7.80;1.40;;;5.50;99.90;;;;;;12570773;28;20052;-85
2021/03/16 10:50:21;;;;;;;7.40;1.67;;;5.60;99.90;;;;;;12591890;28;22397;-84
2021/03/16 10:56:22;;;;;;;4.53;1.10;;;6.00;99.90;;;;;;12588009;28;20044;-85
2021/03/16 11:02:23;;;;;;;7.28;1.50;;;6.60;99.90;;;;;;12584918;28;20043;-84
2021/03/16 11:08:25;;;;;;;7.05;2.03;;;7.30;99.90;;;;;;12584984;28;20068;-85
2021/03/16 11:14:27;;;;;;;6.47;1.10;;;7.40;99.90;;;;;;12587582;28;20122;-84
2021/03/16 11:20:28;;;;;;;4.63;0.95;;;7.00;99.90;;;;;;12576857;28;20552;-84
2021/03/16 11:26:29;;;;;;;4.28;1.20;;;6.30;99.90;;;;;;12586232;28;20040;-84
2021/03/16 11:32:31;;;;;;;6.15;1.10;;;6.10;99.90;;;;;;12577461;28;20087;-84
2021/03/16 11:38:33;;;;;;;8.88;1.70;;;5.90;99.90;;;;;;12576610;28;20066;-84
2021/03/16 11:44:34;;;;;;;7.18;1.75;;;6.30;99.90;;;;;;12587837;28;20048;-84
2021/03/16 11:50:36;;;;;;;11.18;1.60;;;7.30;99.90;;;;;;12590982;28;20032;-84
2021/03/16 11:56:38;;;;;;;6.85;1.45;;;7.20;99.90;;;;;;12602607;28;20388;-84
2021/03/16 12:02:40;;;;;;;9.60;1.80;;;7.10;99.90;;;;;;12582521;28;20046;-85
2021/03/16 12:08:42;;;;;;;5.35;1.40;;;6.70;99.90;;;;;;12580357;28;20047;-86
2021/03/16 12:14:43;;;;;;;6.13;1.25;;;7.20;99.90;;;;;;12577777;28;20109;-84
2021/03/16 12:20:44;;;;;;;6.10;1.67;;;7.20;99.90;;;;;;12581871;28;20162;-85
2021/03/16 12:26:46;;;;;;;7.32;1.30;;;7.70;99.90;;;;;;12590850;28;20117;-85
2021/03/16 12:32:48;;;;;;;5.13;1.55;;;8.30;99.90;;;;;;12587400;28;20044;-86
2021/03/16 12:38:49;;;;;;;6.18;1.08;;;8.30;99.90;;;;;;12578449;28;20052;-85
2021/03/16 12:44:50;;;;;;;3.15;0.70;;;7.50;99.90;;;;;;12572639;28;20044;-85
2021/03/16 12:50:52;;;;;;;7.57;1.33;;;6.70;99.90;;;;;;12591245;28;20093;-85
2021/03/16 12:56:53;;;;;;;3.63;0.90;;;6.50;99.90;;;;;;12581436;28;20146;-85
2021/03/16 13:02:55;;;;;;;3.65;1.10;;;6.20;99.90;;;;;;12579939;28;20048;-85
2021/03/16 13:08:56;;;;;;;3.20;0.70;;;5.70;99.90;;;;;;12569097;28;20051;-83
2021/03/16 13:14:58;;;;;;;3.38;0.60;;;5.60;99.90;;;;;;12582349;28;20130;-84
2021/03/16 13:21:00;;;;;;;4.35;1.30;;;5.80;99.90;;;;;;12575349;28;20587;-84
2021/03/16 13:27:02;;;;;;;8.35;1.42;;;6.40;99.90;;;;;;12588699;28;20093;-84
2021/03/16 13:33:10;;;;;;;6.38;1.60;;;6.90;99.90;;;;;;12577672;28;20044;-84
2021/03/16 13:39:11;;;;;;;7.30;1.38;;;7.10;99.90;;;;;;12587116;28;20043;-84
2021/03/16 13:45:13;;;;;;;5.60;1.35;;;7.20;99.90;;;;;;12569563;28;20126;-85
2021/03/16 13:51:15;;;;;;;10.73;1.52;;;7.40;99.90;;;;;;12589468;28;20579;-85
2021/03/16 13:57:16;;;;;;;7.88;1.60;;;7.50;99.90;;;;;;12575981;28;20048;-85
2021/03/16 14:03:19;;;;;;;6.80;1.50;;;7.70;99.90;;;;;;12583835;28;20045;-85
2021/03/16 14:09:34;;;;;;;7.13;1.60;;;7.50;99.90;;;;;;12576978;28;20364;-85
2021/03/16 14:15:36;;;;;;;8.10;2.00;;;7.20;99.90;;;;;;12585706;28;20123;-85
2021/03/16 14:21:37;;;;;;;10.13;1.50;;;7.10;99.90;;;;;;12586081;28;20089;-85
2021/03/16 14:27:40;;;;;;;7.25;1.60;;;7.10;99.90;;;;;;12585498;28;20048;-85
2021/03/16 14:33:41;;;;;;;7.93;2.00;;;7.30;99.90;;;;;;12591211;28;20146;-85
2021/03/16 14:39:57;;;;;;;6.40;1.88;;;7.40;99.90;;;;;;12578587;28;20048;-85
2021/03/16 14:45:59;;;;;;;5.85;1.45;;;7.60;99.90;;;;;;12595259;28;20040;-85
2021/03/16 14:52:00;;;;;;;10.13;1.17;;;7.60;99.90;;;;;;12560634;28;20063;-86
2021/03/16 14:58:05;;;;;;;6.30;1.52;;;7.80;99.90;;;;;;12562099;28;20060;-85
2021/03/16 15:04:07;;;;;;;9.50;1.42;;;7.60;99.90;;;;;;12571278;28;20096;-85
2021/03/16 15:10:20;;;;;;;9.77;1.90;;;7.60;99.90;;;;;;12572192;28;20527;-85
2021/03/16 15:16:21;;;;;;;7.88;1.75;;;7.60;99.90;;;;;;12593397;28;20044;-85
2021/03/16 15:22:23;;;;;;;7.15;1.40;;;7.70;99.90;;;;;;12574322;28;20048;-84
2021/03/16 15:28:24;;;;;;;6.72;1.35;;;7.90;99.90;;;;;;12552859;28;20074;-85
2021/03/16 15:34:26;;;;;;;7.35;1.55;;;7.90;99.90;;;;;;12579342;28;20044;-85
2021/03/16 15:40:27;;;;;;;11.25;1.63;;;7.80;99.90;;;;;;12579313;28;20056;-85
2021/03/16 15:46:29;;;;;;;12.80;1.77;;;7.70;99.90;;;;;;12586904;28;20067;-85
2021/03/16 15:52:32;;;;;;;6.35;1.40;;;7.70;99.90;;;;;;12605558;28;20052;-85
2021/03/16 15:58:33;;;;;;;9.93;1.60;;;7.70;99.90;;;;;;12576563;28;20455;-85
2021/03/16 16:04:36;;;;;;;8.18;1.45;;;7.60;99.90;;;;;;12580593;28;20067;-85
2021/03/16 16:10:37;;;;;;;5.78;1.58;;;7.60;99.90;;;;;;12589147;28;20089;-84
2021/03/16 16:16:39;;;;;;;4.80;1.48;;;7.50;99.90;;;;;;12576475;28;20052;-85
2021/03/16 16:22:40;;;;;;;7.30;1.17;;;7.60;99.90;;;;;;12583178;28;20040;-85
2021/03/16 16:28:42;;;;;;;6.88;1.27;;;7.60;99.90;;;;;;12588346;28;20108;-86
2021/03/16 16:34:44;;;;;;;5.18;1.27;;;7.70;99.90;;;;;;12589584;28;20040;-85
2021/03/16 16:40:49;;;;;;;5.75;1.33;;;7.40;99.90;;;;;;12580902;28;20457;-86
2021/03/16 16:46:51;;;;;;;12.70;1.30;;;7.40;99.90;;;;;;12602476;28;20044;-85
2021/03/16 16:52:52;;;;;;;8.70;1.35;;;7.30;99.90;;;;;;12576537;28;20226;-86
2021/03/16 16:58:54;;;;;;;5.85;1.00;;;7.30;99.90;;;;;;12583196;28;20623;-85
2021/03/16 17:04:55;;;;;;;8.50;1.35;;;7.10;99.90;;;;;;12578680;28;20054;-85
2021/03/16 17:10:57;;;;;;;7.22;1.10;;;6.90;99.90;;;;;;12584412;28;20622;-85
2021/03/16 17:16:59;;;;;;;6.32;0.90;;;6.70;99.90;;;;;;12583922;28;20040;-85
2021/03/16 17:23:01;;;;;;;4.65;1.35;;;6.50;99.90;;;;;;12580207;28;20052;-85
2021/03/16 17:29:03;;;;;;;7.32;1.55;;;6.40;99.90;;;;;;12585250;28;20090;-85
2021/03/16 17:35:05;;;;;;;6.32;1.65;;;6.20;99.90;;;;;;12581277;28;20178;-84
2021/03/16 17:41:06;;;;;;;5.97;1.70;;;6.10;99.90;;;;;;12595680;28;20048;-85
2021/03/16 17:47:08;;;;;;;7.85;1.50;;;5.90;99.90;;;;;;12580883;28;20127;-85
2021/03/16 17:53:09;;;;;;;11.20;3.40;;;5.90;99.90;;;;;;12588653;28;20139;-84
2021/03/16 17:59:10;;;;;;;13.82;4.55;;;5.90;99.90;;;;;;12580422;28;20048;-85
2021/03/16 18:05:12;;;;;;;21.20;8.00;;;5.80;99.90;;;;;;12584130;28;20039;-84
2021/03/16 18:11:14;;;;;;;12.90;4.47;;;5.50;99.90;;;;;;12596144;28;20056;-84
2021/03/16 18:17:16;;;;;;;11.93;4.35;;;5.50;99.90;;;;;;12597477;28;20720;-83
2021/03/16 18:23:17;;;;;;;15.55;5.18;;;5.30;99.90;;;;;;12577156;28;20528;-84
2021/03/16 18:29:19;;;;;;;16.45;5.13;;;5.20;99.90;;;;;;12594761;28;20413;-84
2021/03/16 18:35:20;;;;;;;10.77;3.28;;;5.10;99.90;;;;;;12585215;28;20181;-84
2021/03/16 18:41:22;;;;;;;12.20;3.83;;;5.10;99.90;;;;;;12580743;28;20051;-84
2021/03/16 18:47:24;;;;;;;11.15;2.30;;;4.80;99.90;;;;;;12597817;28;20480;-84
2021/03/16 18:53:25;;;;;;;10.98;2.25;;;4.70;99.90;;;;;;12583707;28;20043;-84
2021/03/16 18:59:27;;;;;;;8.77;1.88;;;4.50;99.90;;;;;;12587148;28;20144;-83
2021/03/16 19:05:28;;;;;;;6.80;1.80;;;4.40;99.90;;;;;;12579498;28;20044;-84
2021/03/16 19:11:30;;;;;;;9.35;2.30;;;4.60;99.90;;;;;;12590760;28;20806;-83
2021/03/16 19:17:31;;;;;;;9.73;2.17;;;4.40;99.90;;;;;;12583686;28;20507;-84
2021/03/16 19:23:33;;;;;;;9.95;2.28;;;4.30;99.90;;;;;;12590291;28;20050;-84
2021/03/16 19:29:34;;;;;;;8.38;2.10;;;4.10;99.90;;;;;;12584036;28;20048;-84
2021/03/16 19:35:36;;;;;;;8.05;2.45;;;4.00;99.90;;;;;;12590274;28;20056;-84
2021/03/16 19:41:37;;;;;;;11.15;2.35;;;4.00;99.90;;;;;;12581934;28;20147;-84
2021/03/16 19:47:39;;;;;;;10.50;2.28;;;4.00;99.90;;;;;;12584904;28;20093;-84
2021/03/16 19:53:41;;;;;;;13.13;2.40;;;3.80;99.90;;;;;;12575021;28;20728;-84
2021/03/16 19:59:43;;;;;;;7.47;2.20;;;3.70;99.90;;;;;;12575336;28;20590;-84
2021/03/16 20:05:44;;;;;;;13.48;2.83;;;3.40;99.90;;;;;;12581047;28;20565;-84
2021/03/16 20:11:46;;;;;;;7.13;2.20;;;3.10;99.90;;;;;;12590376;28;20099;-84
2021/03/16 20:17:47;;;;;;;10.95;2.65;;;3.00;99.90;;;;;;12606125;28;20075;-84
2021/03/16 20:23:49;;;;;;;9.65;2.75;;;2.90;99.90;;;;;;12582956;28;20040;-84
2021/03/16 20:29:50;;;;;;;12.30;3.25;;;2.90;99.90;;;;;;12591553;28;20088;-84
2021/03/16 20:35:51;;;;;;;8.90;2.75;;;2.80;99.90;;;;;;12585625;28;20047;-84
2021/03/16 20:41:53;;;;;;;10.25;2.75;;;2.70;99.90;;;;;;12584955;28;20040;-84
2021/03/16 20:47:55;;;;;;;10.88;2.80;;;2.60;99.90;;;;;;12593685;28;20170;-84
2021/03/16 20:53:56;;;;;;;9.75;2.92;;;2.80;99.90;;;;;;12587201;28;20070;-84
2021/03/16 20:59:58;;;;;;;10.25;3.58;;;2.80;99.90;;;;;;12573021;28;20060;-83
2021/03/16 21:05:59;;;;;;;10.60;3.60;;;2.80;99.90;;;;;;12577625;28;20400;-84
2021/03/16 21:12:01;;;;;;;11.80;3.38;;;3.00;99.90;;;;;;12578326;28;20108;-84
2021/03/16 21:18:02;;;;;;;9.20;2.95;;;3.20;99.90;;;;;;12567104;28;20047;-84
2021/03/16 21:24:04;;;;;;;11.02;2.90;;;3.40;99.90;;;;;;12569980;28;20093;-83
2021/03/16 21:30:09;;;;;;;9.70;2.65;;;3.30;99.90;;;;;;12584487;28;20100;-84
2021/03/16 21:36:10;;;;;;;14.77;3.00;;;3.10;99.90;;;;;;12573762;28;20052;-84
2021/03/16 21:42:12;;;;;;;14.25;3.40;;;2.90;99.90;;;;;;12578310;28;20036;-84
2021/03/16 21:48:13;;;;;;;10.95;2.78;;;2.90;99.90;;;;;;12581737;28;20040;-84
2021/03/16 21:54:14;;;;;;;12.50;2.92;;;2.80;99.90;;;;;;12588101;28;20107;-84
2021/03/16 22:00:19;;;;;;;11.82;3.30;;;2.70;99.90;;;;;;12577485;28;20089;-84
2021/03/16 22:06:21;;;;;;;9.50;2.28;;;2.50;99.90;;;;;;12579419;28;20044;-84
2021/03/16 22:12:22;;;;;;;17.77;2.95;;;2.40;99.90;;;;;;12582750;28;20089;-84
2021/03/16 22:18:23;;;;;;;12.15;3.10;;;2.20;99.90;;;;;;12590407;28;20124;-83
2021/03/16 22:24:25;;;;;;;9.38;2.65;;;2.10;99.90;;;;;;12581595;28;20048;-83
2021/03/16 22:30:26;;;;;;;13.18;2.80;;;2.00;99.90;;;;;;12590592;28;20043;-84
2021/03/16 22:36:28;;;;;;;13.18;2.50;;;2.00;99.90;;;;;;12568885;28;20183;-84
2021/03/16 22:42:29;;;;;;;8.88;2.17;;;2.20;99.90;;;;;;12588568;28;20128;-83
2021/03/16 22:48:30;;;;;;;11.65;2.15;;;2.40;99.90;;;;;;12589514;28;20089;-83
2021/03/16 22:54:32;;;;;;;8.10;2.08;;;2.70;99.90;;;;;;12583996;28;20060;-84
2021/03/16 23:00:33;;;;;;;16.38;2.22;;;3.00;99.90;;;;;;12576329;28;20040;-83
2021/03/16 23:06:35;;;;;;;8.20;1.88;;;3.00;99.90;;;;;;12607042;28;20052;-84
2021/03/16 23:12:37;;;;;;;11.55;2.17;;;3.00;99.90;;;;;;12583830;28;20044;-84
2021/03/16 23:18:38;;;;;;;15.45;2.95;;;2.90;99.90;;;;;;12592763;28;20083;-84
2021/03/16 23:24:40;;;;;;;10.35;2.30;;;3.10;99.90;;;;;;12578393;28;20551;-84
2021/03/16 23:30:42;;;;;;;13.98;2.53;;;3.30;99.90;;;;;;12591908;28;20932;-84
2021/03/16 23:36:43;;;;;;;11.05;2.85;;;3.30;99.90;;;;;;12587990;28;20056;-84
2021/03/16 23:42:45;;;;;;;9.90;2.38;;;3.10;99.90;;;;;;12583357;28;20381;-83
2021/03/16 23:48:46;;;;;;;11.23;2.28;;;3.30;99.90;;;;;;12595019;28;20047;-84
2021/03/16 23:54:48;;;;;;;12.05;3.30;;;3.30;99.90;;;;;;12576255;28;20499;-84
